Time,TemperatureF,DewpointF,PressureIn,WindDirection,WindDirectionDegrees,WindSpeedMPH,WindSpeedGustMPH,Humidity,HourlyPrecipIn,Conditions,Clouds,dailyrainin,SoftwareType,DateUTC
2013-06-26 07:39:00,88.7,78.8,30.03,East,90,3.6,3.8,72,0.00,,,0.00,Graphweather,2013-06-26 11:39:00,
2013-06-26 07:40:00,89.1,78.8,30.03,East,90,2.9,4.3,72,0.00,,,0.00,Graphweather,2013-06-26 11:40:00,
2013-06-26 07:42:00,89.2,78.8,30.03,NNE,22,3.1,5.8,72,0.00,,,0.00,Graphweather,2013-06-26 11:42:00,
2013-06-26 07:44:00,89.2,78.8,30.03,East,90,3.8,3.8,72,0.00,,,0.00,Graphweather,2013-06-26 11:44:00,
2013-06-26 07:45:00,89.2,78.8,30.03,East,90,2.9,5.8,72,0.00,,,0.00,Graphweather,2013-06-26 11:45:00,
2013-06-26 07:50:00,89.8,80.6,30.03,East,90,2.7,3.6,72,0.00,,,0.00,Graphweather,2013-06-26 11:50:00,
2013-06-26 07:55:00,89.2,78.8,30.03,East,90,2.9,6.5,72,0.00,,,0.00,Graphweather,2013-06-26 11:55:00,
2013-06-26 08:00:00,87.6,78.8,30.03,NE,45,3.4,4.3,75,0.00,,,0.00,Graphweather,2013-06-26 12:00:00,
2013-06-26 08:09:00,86.9,78.8,30.03,East,90,3.6,4.0,76,0.00,,,0.00,Graphweather,2013-06-26 12:09:00,
2013-06-26 08:14:00,86.2,78.8,30.03,ESE,112,2.9,4.3,77,0.00,,,0.00,Graphweather,2013-06-26 12:14:00,
2013-06-26 08:19:00,85.8,77.0,30.03,ESE,112,2.7,3.6,78,0.00,,,0.00,Graphweather,2013-06-26 12:19:00,
2013-06-26 08:25:00,85.3,78.8,30.03,ESE,112,3.6,4.0,79,0.00,,,0.00,Graphweather,2013-06-26 12:25:00,
2013-06-26 08:30:00,85.1,78.8,30.03,SE,135,3.8,3.8,80,0.00,,,0.00,Graphweather,2013-06-26 12:30:00,
2013-06-26 08:36:00,86.4,80.6,30.03,East,90,2.9,3.6,81,0.00,,,0.00,Graphweather,2013-06-26 12:36:00,
2013-06-26 08:41:00,87.1,78.8,30.03,East,90,3.8,6.3,77,0.00,,,0.00,Graphweather,2013-06-26 12:41:00,
2013-06-26 08:46:00,87.1,78.8,30.03,East,90,3.8,5.6,77,0.00,,,0.00,Graphweather,2013-06-26 12:46:00,
2013-06-26 08:51:00,85.5,78.8,30.03,East,90,3.4,3.8,79,0.00,,,0.00,Graphweather,2013-06-26 12:51:00,
2013-06-26 08:57:00,86.9,78.8,30.03,SE,135,3.6,4.9,76,0.00,,,0.00,Graphweather,2013-06-26 12:57:00,
2013-06-26 09:02:00,86.9,78.8,30.03,East,90,4.5,4.5,76,0.00,,,0.00,Graphweather,2013-06-26 13:02:00,
2013-06-26 09:07:00,89.4,80.6,30.03,ENE,67,2.9,3.6,73,0.00,,,0.00,Graphweather,2013-06-26 13:07:00,
2013-06-26 09:13:00,90.1,78.8,30.03,East,90,4.3,7.2,70,0.00,,,0.00,Graphweather,2013-06-26 13:13:00,
2013-06-26 09:18:00,90.0,78.8,30.03,ESE,112,3.1,3.6,69,0.00,,,0.00,Graphweather,2013-06-26 13:18:00,
2013-06-26 09:23:00,90.1,78.8,30.03,SE,135,2.9,4.3,69,0.00,,,0.00,Graphweather,2013-06-26 13:23:00,
2013-06-26 09:28:00,91.0,78.8,30.03,ESE,112,2.9,7.8,67,0.00,,,0.00,Graphweather,2013-06-26 13:28:00,
2013-06-26 09:33:00,91.0,78.8,30.03,East,90,3.4,4.9,66,0.00,,,0.00,Graphweather,2013-06-26 13:33:00,
2013-06-26 09:38:00,91.8,78.8,30.03,ESE,112,3.8,3.8,65,0.00,,,0.00,Graphweather,2013-06-26 13:38:00,
2013-06-26 09:44:00,91.9,78.8,30.03,SSE,157,3.8,5.8,65,0.00,,,0.00,Graphweather,2013-06-26 13:44:00,
2013-06-26 09:55:00,91.2,78.8,30.03,East,90,4.7,4.7,65,0.00,,,0.00,Graphweather,2013-06-26 13:55:00,
2013-06-26 10:00:00,90.1,77.0,30.03,East,90,4.5,4.9,66,0.00,,,0.00,Graphweather,2013-06-26 14:00:00,
2013-06-26 10:05:00,91.8,78.8,30.06,SSE,157,3.4,3.4,65,0.00,,,0.00,Graphweather,2013-06-26 14:05:00,
2013-06-26 10:11:00,92.7,78.8,30.06,East,90,3.4,4.3,65,0.00,,,0.00,Graphweather,2013-06-26 14:11:00,
2013-06-26 10:16:00,92.3,78.8,30.06,NNE,22,3.4,4.3,65,0.00,,,0.00,Graphweather,2013-06-26 14:16:00,
2013-06-26 10:21:00,93.4,78.8,30.03,SSW,202,3.8,5.4,62,0.00,,,0.00,Graphweather,2013-06-26 14:21:00,
2013-06-26 10:26:00,93.4,78.8,30.03,SE,135,3.6,3.6,62,0.00,,,0.00,Graphweather,2013-06-26 14:26:00,
2013-06-26 10:31:00,94.3,78.8,30.03,East,90,2.9,4.7,62,0.00,,,0.00,Graphweather,2013-06-26 14:31:00,
2013-06-26 10:36:00,94.6,78.8,30.06,East,90,3.6,4.7,62,0.00,,,0.00,Graphweather,2013-06-26 14:36:00,
2013-06-26 10:41:00,96.4,80.6,30.06,ESE,112,2.9,3.6,59,0.00,,,0.00,Graphweather,2013-06-26 14:41:00,
2013-06-26 10:47:00,95.0,78.8,30.06,ESE,112,3.4,4.9,58,0.00,,,0.00,Graphweather,2013-06-26 14:47:00,
2013-06-26 10:52:00,94.6,78.8,30.06,East,90,3.8,4.3,60,0.00,,,0.00,Graphweather,2013-06-26 14:52:00,
2013-06-26 10:57:00,94.3,78.8,30.06,East,90,3.1,4.0,60,0.00,,,0.00,Graphweather,2013-06-26 14:57:00,
2013-06-26 11:03:00,93.4,77.0,30.06,ESE,112,3.4,4.3,61,0.00,,,0.00,Graphweather,2013-06-26 15:03:00,
2013-06-26 11:08:00,97.9,78.8,30.06,ESE,112,2.9,3.6,56,0.00,,,0.00,Graphweather,2013-06-26 15:08:00,
2013-06-26 11:13:00,98.1,78.8,30.06,East,90,3.1,3.6,56,0.00,,,0.00,Graphweather,2013-06-26 15:13:00,
2013-06-26 11:18:00,93.6,77.0,30.06,East,90,2.7,3.4,59,0.00,,,0.00,Graphweather,2013-06-26 15:18:00,
2013-06-26 11:23:00,93.7,78.8,30.06,ESE,112,2.2,4.3,61,0.00,,,0.00,Graphweather,2013-06-26 15:23:00,
2013-06-26 11:29:00,93.7,78.8,30.06,SSE,157,3.1,3.8,61,0.00,,,0.00,Graphweather,2013-06-26 15:29:00,
2013-06-26 11:34:00,89.2,77.0,30.06,East,90,3.6,3.6,68,0.00,,,0.00,Graphweather,2013-06-26 15:34:00,
2013-06-26 11:39:00,88.9,77.0,30.06,East,90,3.4,6.5,69,0.00,,,0.00,Graphweather,2013-06-26 15:39:00,
2013-06-26 11:45:00,88.7,78.8,30.06,ESE,112,2.7,4.7,71,0.00,,,0.00,Graphweather,2013-06-26 15:45:00,
2013-06-26 11:50:00,89.2,78.8,30.06,ENE,67,2.7,3.8,71,0.00,,,0.00,Graphweather,2013-06-26 15:50:00,
2013-06-26 11:55:00,90.7,78.8,30.06,East,90,3.4,6.3,69,0.00,,,0.00,Graphweather,2013-06-26 15:55:00,
2013-06-26 12:00:00,91.0,78.8,30.06,East,90,2.2,3.6,67,0.00,,,0.00,Graphweather,2013-06-26 16:00:00,
2013-06-26 12:06:00,89.6,78.8,30.03,East,90,3.6,5.4,68,0.00,,,0.00,Graphweather,2013-06-26 16:06:00,
2013-06-26 12:11:00,90.0,78.8,30.03,ESE,112,2.2,4.9,68,0.00,,,0.00,Graphweather,2013-06-26 16:11:00,
2013-06-26 12:16:00,89.8,78.8,30.03,East,90,3.4,4.0,69,0.00,,,0.00,Graphweather,2013-06-26 16:16:00,
2013-06-26 12:21:00,89.8,78.8,30.03,East,90,2.5,4.9,69,0.00,,,0.00,Graphweather,2013-06-26 16:21:00,
2013-06-26 12:27:00,89.8,78.8,30.03,SSE,157,2.9,4.7,69,0.00,,,0.00,Graphweather,2013-06-26 16:27:00,
2013-06-26 12:32:00,89.8,78.8,30.03,East,90,2.5,4.0,69,0.00,,,0.00,Graphweather,2013-06-26 16:32:00,
2013-06-26 12:37:00,88.5,78.8,30.03,NE,45,3.8,4.7,71,0.00,,,0.00,Graphweather,2013-06-26 16:37:00,
2013-06-26 12:43:00,89.6,78.8,30.03,South,180,3.1,3.4,71,0.00,,,0.00,Graphweather,2013-06-26 16:43:00,
2013-06-26 12:48:00,90.5,80.6,30.03,East,90,2.0,3.4,70,0.00,,,0.00,Graphweather,2013-06-26 16:48:00,
2013-06-26 12:53:00,90.7,78.8,30.03,ENE,67,2.5,2.9,69,0.00,,,0.00,Graphweather,2013-06-26 16:53:00,
2013-06-26 12:58:00,89.2,78.8,30.03,ESE,112,2.2,3.1,70,0.00,,,0.00,Graphweather,2013-06-26 16:58:00,
2013-06-26 13:04:00,89.2,78.8,30.03,East,90,2.5,3.6,70,0.00,,,0.00,Graphweather,2013-06-26 17:04:00,
2013-06-26 13:09:00,88.7,78.8,30.03,East,90,2.7,2.7,70,0.00,,,0.00,Graphweather,2013-06-26 17:09:00,
2013-06-26 13:14:00,87.8,78.8,30.03,NE,45,2.7,2.7,72,0.00,,,0.00,Graphweather,2013-06-26 17:14:00,
2013-06-26 13:19:00,87.8,78.8,30.03,East,90,2.2,2.7,72,0.00,,,0.00,Graphweather,2013-06-26 17:19:00,
2013-06-26 13:25:00,87.8,78.8,30.03,ESE,112,3.1,3.1,73,0.00,,,0.00,Graphweather,2013-06-26 17:25:00,
2013-06-26 13:30:00,87.8,78.8,30.03,ESE,112,2.7,3.6,73,0.00,,,0.00,Graphweather,2013-06-26 17:30:00,